Time;durP1;ratioP1;P1;durP2;ratioP2;P2;SDS_P1;SDS_P2;PMS_P1;PMS_P2;Temp;Humidity;BMP_temperature;BMP_pressure;BME280_temperature;BME280_humidity;BME280_pressure;Samples;Min_cycle;Max_cycle;Signal;HPM_P1;HPM_P2
2021/09/08 00:00:03;;;;;;;7.65;3.42;;;;;;;;;;4996758;28;20229;-81
2021/09/08 00:02:29;;;;;;;9.02;3.35;;;;;;;;;;5002584;28;20033;-81
2021/09/08 00:04:57;;;;;;;8.25;3.00;;;;;;;;;;4997963;28;20036;-82
2021/09/08 00:07:23;;;;;;;7.55;3.08;;;;;;;;;;4999690;28;20045;-81
2021/09/08 00:09:50;;;;;;;7.60;3.00;;;;;;;;;;4996348;28;20022;-81
2021/09/08 00:12:17;;;;;;;7.38;2.83;;;;;;;;;;4996609;28;20042;-81
2021/09/08 00:14:45;;;;;;;6.93;2.80;;;;;;;;;;5001798;28;20099;-80
2021/09/08 00:17:11;;;;;;;8.30;2.75;;;;;;;;;;5005319;28;21151;-81
2021/09/08 00:19:39;;;;;;;7.05;2.88;;;;;;;;;;5006294;28;20135;-82
2021/09/08 00:22:06;;;;;;;9.35;2.83;;;;;;;;;;5002313;28;20037;-81
2021/09/08 00:24:33;;;;;;;9.18;3.10;;;;;;;;;;5007620;28;20089;-83
2021/09/08 00:27:05;;;;;;;9.10;3.17;;;;;;;;;;5005555;28;20150;-82
2021/09/08 00:29:35;;;;;;;8.48;2.90;;;;;;;;;;5012532;28;20069;-80
2021/09/08 00:32:03;;;;;;;7.65;3.08;;;;;;;;;;4999153;28;20039;-81
2021/09/08 00:34:32;;;;;;;8.00;3.28;;;;;;;;;;5003270;28;20065;-81
2021/09/08 00:36:59;;;;;;;8.93;3.25;;;;;;;;;;4997042;28;20049;-82
2021/09/08 00:39:25;;;;;;;7.05;2.90;;;;;;;;;;5000234;28;20028;-82
2021/09/08 00:41:53;;;;;;;7.93;2.85;;;;;;;;;;5000248;28;20160;-82
2021/09/08 00:44:21;;;;;;;7.57;3.00;;;;;;;;;;4999001;28;20026;-81
2021/09/08 00:46:48;;;;;;;12.82;3.55;;;;;;;;;;4996946;28;20049;-82
2021/09/08 00:49:16;;;;;;;7.65;3.10;;;;;;;;;;5002678;28;20025;-80
2021/09/08 00:51:42;;;;;;;10.05;3.00;;;;;;;;;;5001628;28;20187;-79
2021/09/08 00:54:16;;;;;;;8.73;3.10;;;;;;;;;;5000668;28;20029;-81
2021/09/08 00:56:43;;;;;;;9.15;3.10;;;;;;;;;;4999058;28;20086;-81
2021/09/08 00:59:10;;;;;;;9.90;3.22;;;;;;;;;;5005786;28;20065;-81
2021/09/08 01:01:40;;;;;;;10.40;2.83;;;;;;;;;;4997258;28;20036;-81
2021/09/08 01:04:06;;;;;;;9.77;3.20;;;;;;;;;;4999131;28;20032;-81
2021/09/08 01:06:33;;;;;;;7.53;3.17;;;;;;;;;;4998694;28;20384;-81
2021/09/08 01:09:01;;;;;;;8.35;3.40;;;;;;;;;;4983728;28;20037;-81
2021/09/08 01:11:30;;;;;;;8.90;2.90;;;;;;;;;;5008015;28;20033;-81
2021/09/08 01:13:57;;;;;;;9.02;3.40;;;;;;;;;;4996929;28;20041;-81
2021/09/08 01:16:23;;;;;;;11.18;3.10;;;;;;;;;;5006177;28;20104;-82
2021/09/08 01:18:52;;;;;;;12.07;3.95;;;;;;;;;;4996284;28;20494;-80
2021/09/08 01:21:18;;;;;;;10.45;3.53;;;;;;;;;;5008535;28;20079;-81
2021/09/08 01:23:44;;;;;;;9.70;3.10;;;;;;;;;;4999612;28;20479;-82
2021/09/08 01:26:11;;;;;;;9.18;3.20;;;;;;;;;;5001035;28;20161;-81
2021/09/08 01:28:37;;;;;;;8.77;3.20;;;;;;;;;;5000910;28;21529;-80
2021/09/08 01:31:06;;;;;;;7.40;2.55;;;;;;;;;;4998683;28;20033;-79
2021/09/08 01:33:35;;;;;;;7.75;2.70;;;;;;;;;;5003622;28;20033;-81
2021/09/08 01:36:02;;;;;;;8.93;2.60;;;;;;;;;;4993010;28;20034;-81
2021/09/08 01:38:28;;;;;;;10.90;3.40;;;;;;;;;;5003878;28;20126;-81
2021/09/08 01:40:56;;;;;;;8.38;3.13;;;;;;;;;;4995673;28;20127;-81
2021/09/08 01:43:23;;;;;;;9.02;3.03;;;;;;;;;;5003892;28;20022;-81
2021/09/08 01:45:51;;;;;;;8.32;3.33;;;;;;;;;;4997841;28;20049;-81
2021/09/08 01:48:19;;;;;;;8.75;3.22;;;;;;;;;;5000808;28;20045;-81
2021/09/08 01:50:47;;;;;;;9.20;3.05;;;;;;;;;;5004247;28;20598;-83
2021/09/08 01:53:15;;;;;;;9.25;3.30;;;;;;;;;;5002884;28;20041;-81
2021/09/08 01:55:42;;;;;;;10.55;3.22;;;;;;;;;;5000882;28;20037;-80
2021/09/08 01:58:10;;;;;;;8.45;3.05;;;;;;;;;;5005619;28;20040;-84
2021/09/08 02:00:36;;;;;;;7.93;2.75;;;;;;;;;;5010007;28;20029;-82
2021/09/08 02:03:05;;;;;;;8.35;2.90;;;;;;;;;;5000877;28;20045;-81
2021/09/08 02:05:33;;;;;;;8.38;3.10;;;;;;;;;;5009992;28;20030;-82
2021/09/08 02:08:00;;;;;;;10.82;2.70;;;;;;;;;;5004315;28;20038;-82
2021/09/08 02:10:29;;;;;;;7.65;2.72;;;;;;;;;;5005662;28;20021;-82
2021/09/08 02:12:58;;;;;;;7.85;2.70;;;;;;;;;;4998896;28;20036;-81
2021/09/08 02:15:24;;;;;;;7.95;2.90;;;;;;;;;;5004941;28;20145;-83
2021/09/08 02:17:51;;;;;;;7.85;2.83;;;;;;;;;;4998250;28;20038;-83
2021/09/08 02:20:22;;;;;;;7.38;2.95;;;;;;;;;;5004281;28;20054;-84
2021/09/08 02:22:49;;;;;;;8.55;3.05;;;;;;;;;;4999628;28;20021;-82
2021/09/08 02:25:17;;;;;;;7.53;2.47;;;;;;;;;;5000635;28;20500;-81
2021/09/08 02:27:44;;;;;;;10.10;2.90;;;;;;;;;;5003987;28;20057;-82
2021/09/08 02:30:11;;;;;;;7.70;2.63;;;;;;;;;;4999842;28;20095;-82
2021/09/08 02:32:38;;;;;;;8.35;2.65;;;;;;;;;;5003185;28;20029;-82
2021/09/08 02:35:05;;;;;;;8.38;2.60;;;;;;;;;;5000737;28;21495;-81
2021/09/08 02:37:31;;;;;;;8.13;2.72;;;;;;;;;;5006602;28;20026;-82
2021/09/08 02:39:59;;;;;;;6.88;2.70;;;;;;;;;;5005021;28;20063;-82
2021/09/08 02:42:25;;;;;;;7.18;2.90;;;;;;;;;;5004908;28;20060;-82
2021/09/08 02:44:51;;;;;;;9.00;2.72;;;;;;;;;;4997763;28;20042;-81
2021/09/08 02:47:20;;;;;;;7.60;2.83;;;;;;;;;;5002329;28;20029;-80
2021/09/08 02:49:47;;;;;;;7.90;3.10;;;;;;;;;;5002294;28;20025;-80
2021/09/08 02:52:14;;;;;;;7.13;2.35;;;;;;;;;;5003720;28;20140;-80
2021/09/08 02:54:43;;;;;;;7.00;2.70;;;;;;;;;;5003642;28;20080;-80
2021/09/08 02:57:10;;;;;;;8.93;2.75;;;;;;;;;;5000013;28;20040;-80
2021/09/08 02:59:37;;;;;;;8.18;2.72;;;;;;;;;;5005841;28;20759;-82
2021/09/08 03:02:04;;;;;;;7.30;2.70;;;;;;;;;;4993248;28;21891;-82
2021/09/08 03:04:31;;;;;;;7.47;2.90;;;;;;;;;;4993912;28;20046;-82
2021/09/08 03:06:58;;;;;;;7.47;3.00;;;;;;;;;;4998282;28;20060;-80
2021/09/08 03:09:25;;;;;;;8.45;2.97;;;;;;;;;;4998313;28;20128;-81
2021/09/08 03:11:52;;;;;;;8.10;2.90;;;;;;;;;;4999612;28;20125;-81
2021/09/08 03:14:20;;;;;;;7.07;2.90;;;;;;;;;;4996561;28;20088;-81
2021/09/08 03:16:46;;;;;;;9.15;2.90;;;;;;;;;;4999244;28;20549;-81
2021/09/08 03:19:13;;;;;;;9.00;3.15;;;;;;;;;;4998339;28;20038;-80
2021/09/08 03:21:43;;;;;;;7.65;3.20;;;;;;;;;;5005909;28;20018;-83
2021/09/08 03:24:09;;;;;;;6.82;2.60;;;;;;;;;;4999961;28;20025;-80
2021/09/08 03:26:36;;;;;;;8.77;2.90;;;;;;;;;;5002288;28;20034;-81
2021/09/08 03:29:04;;;;;;;8.70;3.00;;;;;;;;;;5013131;28;20034;-82
2021/09/08 03:31:32;;;;;;;7.50;3.10;;;;;;;;;;4997568;28;20022;-80
2021/09/08 03:33:59;;;;;;;8.05;2.80;;;;;;;;;;5002476;28;20343;-81
2021/09/08 03:36:26;;;;;;;8.07;2.90;;;;;;;;;;4998462;28;20038;-80
2021/09/08 03:38:54;;;;;;;11.35;3.38;;;;;;;;;;4999647;28;20502;-81
2021/09/08 03:41:22;;;;;;;8.65;3.60;;;;;;;;;;5000226;28;20389;-81
2021/09/08 03:43:50;;;;;;;7.97;3.38;;;;;;;;;;4999217;28;20030;-80
2021/09/08 03:46:18;;;;;;;8.35;3.50;;;;;;;;;;4999326;28;20065;-80
2021/09/08 03:48:44;;;;;;;10.68;3.42;;;;;;;;;;4995081;28;20026;-81
2021/09/08 03:51:12;;;;;;;10.00;3.40;;;;;;;;;;5004441;28;20326;-80
2021/09/08 03:53:40;;;;;;;7.63;3.38;;;;;;;;;;5011707;28;20065;-80
2021/09/08 03:56:06;;;;;;;9.55;3.80;;;;;;;;;;4977937;28;20096;-80
2021/09/08 03:58:32;;;;;;;9.65;3.45;;;;;;;;;;4961023;28;20061;-79
2021/09/08 04:00:58;;;;;;;8.43;3.20;;;;;;;;;;4954406;28;20053;-81
2021/09/08 04:03:46;;;;;;;7.43;2.83;;;;;;;;;;4976121;28;20582;-81
2021/09/08 04:06:14;;;;;;;9.02;3.08;;;;;;;;;;4956967;28;20121;-80
2021/09/08 04:08:41;;;;;;;9.80;3.38;;;;;;;;;;4961865;28;20123;-80
2021/09/08 04:11:10;;;;;;;9.82;3.20;;;;;;;;;;4941582;28;20070;-81
2021/09/08 04:13:37;;;;;;;8.07;3.35;;;;;;;;;;4952468;28;20041;-81
2021/09/08 04:16:05;;;;;;;9.20;3.33;;;;;;;;;;4951390;28;22470;-81
2021/09/08 04:18:32;;;;;;;9.75;3.20;;;;;;;;;;4944663;28;20418;-80
2021/09/08 04:20:59;;;;;;;8.52;3.08;;;;;;;;;;4938510;28;20161;-81
2021/09/08 04:23:25;;;;;;;9.73;3.13;;;;;;;;;;4944668;28;20103;-81
2021/09/08 04:25:52;;;;;;;7.75;2.63;;;;;;;;;;4953931;28;20401;-81
2021/09/08 04:28:18;;;;;;;9.07;2.90;;;;;;;;;;4955163;28;20047;-81
2021/09/08 04:30:45;;;;;;;8.15;2.80;;;;;;;;;;4952862;28;20146;-81
2021/09/08 04:33:12;;;;;;;8.25;2.80;;;;;;;;;;4956424;28;20034;-81
2021/09/08 04:35:40;;;;;;;8.70;2.90;;;;;;;;;;4944449;28;20651;-81
2021/09/08 04:38:06;;;;;;;8.15;3.08;;;;;;;;;;4947264;28;20045;-80
2021/09/08 04:40:33;;;;;;;8.93;3.05;;;;;;;;;;4953763;28;20030;-83
2021/09/08 04:43:01;;;;;;;8.77;3.05;;;;;;;;;;4947248;28;20038;-81
2021/09/08 04:45:30;;;;;;;7.22;2.63;;;;;;;;;;4944887;28;20082;-81
2021/09/08 04:47:57;;;;;;;8.43;3.00;;;;;;;;;;4934998;28;20074;-81
2021/09/08 04:50:24;;;;;;;8.65;3.30;;;;;;;;;;4947928;28;20421;-81
2021/09/08 04:52:51;;;;;;;9.93;3.47;;;;;;;;;;4937570;28;20042;-80
2021/09/08 04:55:18;;;;;;;8.43;3.10;;;;;;;;;;4956790;28;20043;-80
2021/09/08 04:57:44;;;;;;;9.07;2.88;;;;;;;;;;4938984;28;20041;-80
2021/09/08 05:00:13;;;;;;;9.23;3.13;;;;;;;;;;4940797;28;20046;-84
2021/09/08 05:02:40;;;;;;;6.55;2.67;;;;;;;;;;4961509;28;20038;-84
2021/09/08 05:05:08;;;;;;;8.65;2.67;;;;;;;;;;4975684;28;20505;-82
2021/09/08 05:07:34;;;;;;;8.90;3.00;;;;;;;;;;4987478;28;20026;-83
2021/09/08 05:10:14;;;;;;;9.50;3.00;;;;;;;;;;4977463;28;20021;-82
2021/09/08 05:12:41;;;;;;;11.15;2.95;;;;;;;;;;4982902;28;20038;-82
2021/09/08 05:15:08;;;;;;;8.18;2.53;;;;;;;;;;4980999;28;20028;-82
2021/09/08 05:17:34;;;;;;;8.77;2.80;;;;;;;;;;4984419;28;20465;-80
2021/09/08 05:20:05;;;;;;;12.77;3.40;;;;;;;;;;4980277;28;20049;-80
2021/09/08 05:22:33;;;;;;;10.40;3.22;;;;;;;;;;4983744;28;20027;-80
2021/09/08 05:25:01;;;;;;;9.63;3.55;;;;;;;;;;4983853;28;20025;-80
2021/09/08 05:27:30;;;;;;;10.18;2.97;;;;;;;;;;4980454;28;20425;-81
2021/09/08 05:29:57;;;;;;;14.68;3.92;;;;;;;;;;4983003;28;20033;-82
2021/09/08 05:32:24;;;;;;;10.18;3.83;;;;;;;;;;4981373;28;20460;-80
2021/09/08 05:34:51;;;;;;;9.20;3.25;;;;;;;;;;4979391;28;20676;-81
2021/09/08 05:37:19;;;;;;;10.85;3.17;;;;;;;;;;4985844;28;20042;-81
2021/09/08 05:39:46;;;;;;;10.95;3.33;;;;;;;;;;4978308;28;20760;-81
2021/09/08 05:42:12;;;;;;;10.95;3.55;;;;;;;;;;4989550;28;20036;-81
2021/09/08 05:44:40;;;;;;;11.38;3.13;;;;;;;;;;4969006;28;20049;-83
2021/09/08 05:47:06;;;;;;;9.73;3.22;;;;;;;;;;4983925;28;20049;-81
2021/09/08 05:49:32;;;;;;;8.82;3.13;;;;;;;;;;4981301;28;20030;-81
2021/09/08 05:52:02;;;;;;;8.40;3.03;;;;;;;;;;4984253;28;20132;-84
2021/09/08 05:54:30;;;;;;;8.80;3.03;;;;;;;;;;4981923;28;20153;-81
2021/09/08 05:56:57;;;;;;;8.85;3.22;;;;;;;;;;4981374;28;20037;-81
2021/09/08 05:59:24;;;;;;;8.82;2.90;;;;;;;;;;4986236;28;20328;-81
2021/09/08 06:01:51;;;;;;;9.18;2.95;;;;;;;;;;4991903;28;20088;-83
2021/09/08 06:04:18;;;;;;;10.45;3.65;;;;;;;;;;4985598;28;20057;-82
2021/09/08 06:06:44;;;;;;;12.30;3.70;;;;;;;;;;4975461;28;20045;-82
2021/09/08 06:09:11;;;;;;;11.38;3.67;;;;;;;;;;4982051;28;20153;-82
2021/09/08 06:11:37;;;;;;;11.95;3.60;;;;;;;;;;4979422;28;20334;-83
2021/09/08 06:14:07;;;;;;;17.20;3.90;;;;;;;;;;4982287;28;20073;-82
2021/09/08 06:16:33;;;;;;;14.73;4.03;;;;;;;;;;4982124;28;20022;-82
2021/09/08 06:18:59;;;;;;;14.85;4.43;;;;;;;;;;4978019;28;20027;-83
2021/09/08 06:21:26;;;;;;;13.30;3.90;;;;;;;;;;4984203;28;20532;-81
2021/09/08 06:23:54;;;;;;;16.02;4.10;;;;;;;;;;4969971;28;20038;-83
2021/09/08 06:26:23;;;;;;;18.17;4.82;;;;;;;;;;4985245;28;20029;-82
2021/09/08 06:28:52;;;;;;;22.17;6.03;;;;;;;;;;4976947;28;20504;-82
2021/09/08 06:31:21;;;;;;;21.08;6.63;;;;;;;;;;4983084;28;20065;-82
2021/09/08 06:33:50;;;;;;;18.23;6.10;;;;;;;;;;4974570;28;20038;-82
2021/09/08 06:36:18;;;;;;;13.88;5.10;;;;;;;;;;4968200;28;20673;-81
2021/09/08 06:38:46;;;;;;;16.40;7.45;;;;;;;;;;4978885;28;20027;-82
2021/09/08 06:41:14;;;;;;;18.05;10.38;;;;;;;;;;4977455;28;20022;-82
2021/09/08 06:43:40;;;;;;;18.65;9.98;;;;;;;;;;4980022;28;20628;-82
2021/09/08 06:46:06;;;;;;;26.25;10.63;;;;;;;;;;4987821;28;20057;-81
2021/09/08 06:48:33;;;;;;;23.52;14.57;;;;;;;;;;5002363;28;20156;-81
2021/09/08 06:51:01;;;;;;;28.88;16.42;;;;;;;;;;4993290;28;20124;-82
2021/09/08 06:53:31;;;;;;;22.02;12.80;;;;;;;;;;4997759;28;20483;-81
2021/09/08 06:55:57;;;;;;;25.25;11.55;;;;;;;;;;4992087;28;20029;-82
2021/09/08 06:58:25;;;;;;;22.48;11.25;;;;;;;;;;4999557;28;20056;-81
2021/09/08 07:00:51;;;;;;;18.85;8.02;;;;;;;;;;4997110;28;20025;-82
2021/09/08 07:03:19;;;;;;;17.10;6.35;;;;;;;;;;5000442;28;20032;-82
2021/09/08 07:05:45;;;;;;;13.40;5.40;;;;;;;;;;4995913;28;20037;-82
2021/09/08 07:08:14;;;;;;;16.50;5.43;;;;;;;;;;5002741;28;20438;-83
2021/09/08 07:10:41;;;;;;;15.93;5.30;;;;;;;;;;5003962;28;20938;-84
2021/09/08 07:13:07;;;;;;;12.38;4.72;;;;;;;;;;4995570;28;20527;-82
2021/09/08 07:15:34;;;;;;;13.30;4.15;;;;;;;;;;5002050;28;20051;-82
2021/09/08 07:18:03;;;;;;;14.65;4.75;;;;;;;;;;4995146;28;20075;-82
2021/09/08 07:20:30;;;;;;;10.27;4.28;;;;;;;;;;5004076;28;20029;-82
2021/09/08 07:22:57;;;;;;;12.70;4.60;;;;;;;;;;4994620;28;20056;-83
2021/09/08 07:25:24;;;;;;;10.23;4.47;;;;;;;;;;5007230;28;20040;-84
2021/09/08 07:27:50;;;;;;;13.63;4.50;;;;;;;;;;4982456;28;20166;-82
2021/09/08 07:30:16;;;;;;;10.25;4.32;;;;;;;;;;5004320;28;20852;-83
2021/09/08 07:32:46;;;;;;;14.50;4.80;;;;;;;;;;5003845;28;20037;-83
2021/09/08 07:35:13;;;;;;;14.15;4.22;;;;;;;;;;5019879;28;20111;-84
2021/09/08 07:37:41;;;;;;;13.15;4.63;;;;;;;;;;5013558;28;20488;-84
2021/09/08 07:40:19;;;;;;;11.50;3.83;;;;;;;;;;5017980;28;20107;-82
2021/09/08 07:42:45;;;;;;;10.90;4.15;;;;;;;;;;5016042;28;20030;-83
2021/09/08 07:45:13;;;;;;;11.05;3.67;;;;;;;;;;5001501;28;20439;-83
2021/09/08 07:47:40;;;;;;;11.90;3.65;;;;;;;;;;5001651;28;21080;-82
2021/09/08 07:50:09;;;;;;;11.95;4.30;;;;;;;;;;4996741;28;20056;-83
2021/09/08 07:52:37;;;;;;;10.68;3.60;;;;;;;;;;4998611;28;20239;-84
2021/09/08 07:55:05;;;;;;;9.02;3.47;;;;;;;;;;5011699;28;20068;-83
2021/09/08 07:57:32;;;;;;;12.18;3.55;;;;;;;;;;4996356;28;20025;-81
2021/09/08 07:59:59;;;;;;;13.48;3.92;;;;;;;;;;5001500;28;20108;-83
2021/09/08 08:02:26;;;;;;;11.38;3.40;;;;;;;;;;5002740;28;20049;-82
2021/09/08 08:04:52;;;;;;;8.52;3.28;;;;;;;;;;5005594;28;20030;-83
2021/09/08 08:07:19;;;;;;;10.65;3.80;;;;;;;;;;5001680;28;20060;-84
2021/09/08 08:09:54;;;;;;;11.63;3.40;;;;;;;;;;5001343;28;20736;-84
2021/09/08 08:12:20;;;;;;;12.63;3.85;;;;;;;;;;5005362;28;20033;-84
2021/09/08 08:14:48;;;;;;;12.85;3.63;;;;;;;;;;4996663;28;20033;-84
2021/09/08 08:17:15;;;;;;;11.25;3.63;;;;;;;;;;5011385;28;20037;-84
2021/09/08 08:19:42;;;;;;;12.07;3.83;;;;;;;;;;5015041;28;20063;-84
2021/09/08 08:22:14;;;;;;;11.25;3.42;;;;;;;;;;5019970;28;20025;-85
2021/09/08 08:24:45;;;;;;;15.55;3.97;;;;;;;;;;5008187;28;20079;-83
2021/09/08 08:27:16;;;;;;;10.00;3.20;;;;;;;;;;5014367;28;20053;-82
2021/09/08 08:29:44;;;;;;;13.02;3.80;;;;;;;;;;5012516;28;20390;-84
2021/09/08 08:32:10;;;;;;;8.63;3.10;;;;;;;;;;5018276;28;20130;-82
2021/09/08 08:34:38;;;;;;;13.95;3.90;;;;;;;;;;5010734;28;20025;-84
2021/09/08 08:37:08;;;;;;;9.68;3.25;;;;;;;;;;5003213;28;20029;-84
2021/09/08 08:39:45;;;;;;;8.80;3.05;;;;;;;;;;5017555;28;20753;-84
2021/09/08 08:42:23;;;;;;;10.45;3.42;;;;;;;;;;5007118;28;20040;-83
2021/09/08 08:44:52;;;;;;;10.15;4.03;;;;;;;;;;5004902;28;20030;-83
2021/09/08 08:47:24;;;;;;;11.35;4.28;;;;;;;;;;5007246;28;20047;-82
2021/09/08 08:49:57;;;;;;;14.13;4.80;;;;;;;;;;5004786;28;20649;-83
2021/09/08 08:52:25;;;;;;;11.02;3.47;;;;;;;;;;5010477;28;20034;-84
2021/09/08 08:54:51;;;;;;;17.35;4.45;;;;;;;;;;5026371;28;20132;-82
2021/09/08 08:57:18;;;;;;;11.90;3.70;;;;;;;;;;5024771;28;20088;-84
2021/09/08 08:59:49;;;;;;;14.32;3.50;;;;;;;;;;5017139;28;20029;-83
2021/09/08 09:02:53;;;;;;;15.30;3.45;;;;;;;;;;5017883;28;20033;-84
2021/09/08 09:08:33;;;;;;;9.30;3.50;;;;;;;;;;4932935;28;20098;-84
2021/09/08 09:11:00;;;;;;;7.78;2.85;;;;;;;;;;4928593;28;20129;-84
2021/09/08 09:13:33;;;;;;;9.15;3.25;;;;;;;;;;4933511;28;20035;-83
2021/09/08 09:16:10;;;;;;;11.45;3.05;;;;;;;;;;4921077;28;20038;-84
2021/09/08 09:21:56;;;;;;;9.30;2.83;;;;;;;;;;4871644;29;20068;-82
2021/09/08 09:24:23;;;;;;;9.60;2.83;;;;;;;;;;4872495;29;20041;-82
2021/09/08 09:26:50;;;;;;;11.38;3.10;;;;;;;;;;4870378;29;20033;-83
2021/09/08 09:29:18;;;;;;;13.82;3.67;;;;;;;;;;4876361;29;20040;-84
2021/09/08 09:31:56;;;;;;;11.32;3.25;;;;;;;;;;4867668;29;20103;-83
2021/09/08 09:34:25;;;;;;;10.63;2.90;;;;;;;;;;4871436;29;20487;-84
2021/09/08 09:37:12;;;;;;;9.35;2.92;;;;;;;;;;4866311;29;20024;-81
2021/09/08 09:39:42;;;;;;;10.00;2.67;;;;;;;;;;4914899;28;20050;-81
2021/09/08 09:42:09;;;;;;;13.20;2.75;;;;;;;;;;4939923;28;20766;-83
2021/09/08 09:44:36;;;;;;;10.88;2.55;;;;;;;;;;4924571;28;20039;-82
2021/09/08 09:47:03;;;;;;;10.35;2.80;;;;;;;;;;4941268;28;20898;-82
2021/09/08 09:49:36;;;;;;;9.75;2.72;;;;;;;;;;4928834;28;20042;-82
2021/09/08 09:52:12;;;;;;;9.95;2.55;;;;;;;;;;4942411;28;20047;-82
2021/09/08 09:54:38;;;;;;;8.90;2.60;;;;;;;;;;4941999;28;20047;-83
2021/09/08 09:57:08;;;;;;;9.48;2.97;;;;;;;;;;4939680;28;20038;-82
2021/09/08 09:59:35;;;;;;;9.85;2.92;;;;;;;;;;4989298;28;20179;-83
2021/09/08 10:02:06;;;;;;;9.93;2.95;;;;;;;;;;5010474;28;20637;-82
2021/09/08 10:04:36;;;;;;;9.25;2.30;;;;;;;;;;5014705;28;20049;-83
2021/09/08 10:07:03;;;;;;;10.15;2.63;;;;;;;;;;4994899;28;20096;-82
2021/09/08 10:09:30;;;;;;;8.60;2.20;;;;;;;;;;5016615;28;20037;-82
2021/09/08 10:11:58;;;;;;;8.05;2.05;;;;;;;;;;5008431;28;20033;-83
2021/09/08 10:14:28;;;;;;;8.13;2.40;;;;;;;;;;5004696;28;20044;-82
2021/09/08 10:16:55;;;;;;;7.18;2.00;;;;;;;;;;5001009;28;20079;-83
2021/09/08 10:19:28;;;;;;;8.60;2.30;;;;;;;;;;5001545;28;20556;-82
2021/09/08 10:22:05;;;;;;;7.90;2.30;;;;;;;;;;5007359;28;20025;-82
2021/09/08 10:24:33;;;;;;;9.93;2.30;;;;;;;;;;5005221;28;20238;-82
2021/09/08 10:27:00;;;;;;;8.25;2.08;;;;;;;;;;4999234;28;20033;-81
2021/09/08 10:29:29;;;;;;;9.18;2.40;;;;;;;;;;5009154;28;20518;-82
2021/09/08 10:31:59;;;;;;;10.05;2.42;;;;;;;;;;4997892;28;20061;-82
2021/09/08 10:34:28;;;;;;;6.53;2.10;;;;;;;;;;5003572;28;20033;-83
2021/09/08 10:36:57;;;;;;;10.52;2.10;;;;;;;;;;4998920;28;20025;-81
2021/09/08 10:39:28;;;;;;;8.18;2.00;;;;;;;;;;5004291;28;20018;-82
2021/09/08 10:41:54;;;;;;;9.35;2.28;;;;;;;;;;5003242;28;20411;-81
2021/09/08 10:44:41;;;;;;;8.18;2.20;;;;;;;;;;5006888;28;20021;-82
2021/09/08 10:47:08;;;;;;;9.50;2.10;;;;;;;;;;5002184;28;20049;-83
2021/09/08 10:49:44;;;;;;;9.93;2.60;;;;;;;;;;5004706;28;20021;-82
2021/09/08 10:52:36;;;;;;;7.70;2.70;;;;;;;;;;4999587;28;20144;-81
2021/09/08 10:55:02;;;;;;;9.45;2.20;;;;;;;;;;4988778;28;20072;-82
2021/09/08 10:57:48;;;;;;;8.75;2.10;;;;;;;;;;5005111;28;20048;-83
2021/09/08 11:00:21;;;;;;;8.30;2.13;;;;;;;;;;5004215;28;20088;-84
2021/09/08 11:02:49;;;;;;;6.72;1.90;;;;;;;;;;5005136;28;20036;-83
2021/09/08 11:05:18;;;;;;;9.15;2.13;;;;;;;;;;5001621;28;20040;-85
2021/09/08 11:07:50;;;;;;;7.20;2.00;;;;;;;;;;5001522;28;20083;-82
2021/09/08 11:10:36;;;;;;;6.10;1.70;;;;;;;;;;5001487;28;20021;-83
2021/09/08 11:13:10;;;;;;;7.20;1.92;;;;;;;;;;5003315;28;20808;-83
2021/09/08 11:15:57;;;;;;;4.65;1.45;;;;;;;;;;5003756;28;20133;-83
2021/09/08 11:18:33;;;;;;;7.68;1.98;;;;;;;;;;5003349;28;20013;-84
2021/09/08 11:21:06;;;;;;;7.22;1.90;;;;;;;;;;4992371;28;20053;-83
2021/09/08 11:23:35;;;;;;;7.68;2.00;;;;;;;;;;4999802;28;20030;-83
2021/09/08 11:26:09;;;;;;;9.68;2.33;;;;;;;;;;4994503;28;20316;-82
2021/09/08 11:28:37;;;;;;;9.20;2.20;;;;;;;;;;4999999;28;20030;-82
2021/09/08 11:31:20;;;;;;;13.40;3.30;;;;;;;;;;4993604;28;20029;-82
2021/09/08 11:33:48;;;;;;;10.85;2.83;;;;;;;;;;4991365;28;20030;-82
2021/09/08 11:36:23;;;;;;;9.57;2.50;;;;;;;;;;4999164;28;20041;-84
2021/09/08 11:39:00;;;;;;;12.13;2.63;;;;;;;;;;4996132;28;20053;-82
2021/09/08 11:41:28;;;;;;;7.82;2.22;;;;;;;;;;5003127;28;20436;-82
2021/09/08 11:43:58;;;;;;;7.90;1.85;;;;;;;;;;4997410;28;20044;-81
2021/09/08 11:46:25;;;;;;;8.30;2.00;;;;;;;;;;5001501;28;20046;-83
2021/09/08 11:49:11;;;;;;;7.95;2.00;;;;;;;;;;4999444;28;20053;-84
2021/09/08 11:51:40;;;;;;;9.40;2.50;;;;;;;;;;5005715;28;20043;-84
2021/09/08 11:54:09;;;;;;;7.78;2.15;;;;;;;;;;4999038;28;20055;-84
2021/09/08 11:56:40;;;;;;;7.20;2.22;;;;;;;;;;4999648;28;20030;-81
2021/09/08 11:59:07;;;;;;;9.50;1.90;;;;;;;;;;4993277;28;21112;-83
2021/09/08 12:01:38;;;;;;;9.10;2.20;;;;;;;;;;4996395;28;20033;-81
2021/09/08 12:04:09;;;;;;;9.10;1.95;;;;;;;;;;4992821;28;20040;-81
2021/09/08 12:06:54;;;;;;;6.55;1.70;;;;;;;;;;4999433;28;20787;-83
2021/09/08 12:09:25;;;;;;;6.70;1.92;;;;;;;;;;4997345;28;20576;-82
2021/09/08 12:12:00;;;;;;;9.90;2.15;;;;;;;;;;4993949;28;20393;-85
2021/09/08 12:14:28;;;;;;;8.88;1.92;;;;;;;;;;5004968;28;20278;-82
2021/09/08 12:16:55;;;;;;;8.98;2.38;;;;;;;;;;5002279;28;20112;-84
2021/09/08 12:19:27;;;;;;;10.50;2.15;;;;;;;;;;5005056;28;20052;-83
2021/09/08 12:22:09;;;;;;;9.07;1.90;;;;;;;;;;5002539;28;20033;-82
2021/09/08 12:24:42;;;;;;;9.77;1.92;;;;;;;;;;5007977;28;20057;-81
2021/09/08 12:27:32;;;;;;;11.48;2.00;;;;;;;;;;5001256;28;20033;-84
2021/09/08 12:30:00;;;;;;;9.70;2.15;;;;;;;;;;4997185;28;20057;-86
2021/09/08 12:32:48;;;;;;;8.65;2.00;;;;;;;;;;5007899;28;20569;-88
2021/09/08 12:35:40;;;;;;;7.88;1.88;;;;;;;;;;5030024;28;20022;-86
2021/09/08 12:41:32;;;;;;;9.15;2.05;;;;;;;;;;5004340;28;20053;-84
2021/09/08 12:44:04;;;;;;;7.28;1.98;;;;;;;;;;5010077;28;20753;-83
2021/09/08 12:46:39;;;;;;;8.00;1.98;;;;;;;;;;5005801;28;20160;-85
2021/09/08 12:49:10;;;;;;;8.98;1.80;;;;;;;;;;4998953;28;20869;-82
2021/09/08 12:51:37;;;;;;;7.88;1.92;;;;;;;;;;5006826;28;20116;-84
2021/09/08 12:55:03;;;;;;;;;;;;;;;;;;;;;
2021/09/08 12:57:32;;;;;;;8.80;1.75;;;;;;;;;;5017540;28;20069;-87
2021/09/08 13:02:49;;;;;;;6.57;2.00;;;;;;;;;;5003396;28;20040;-87
2021/09/08 13:05:18;;;;;;;6.72;1.70;;;;;;;;;;5009851;28;20029;-85
2021/09/08 13:07:45;;;;;;;8.43;1.80;;;;;;;;;;5005217;28;20029;-85
2021/09/08 13:10:12;;;;;;;7.10;1.70;;;;;;;;;;5020729;28;20790;-86
2021/09/08 13:12:40;;;;;;;8.95;2.00;;;;;;;;;;5004404;28;20036;-87
2021/09/08 13:15:14;;;;;;;5.90;1.48;;;;;;;;;;5003476;28;20060;-86
2021/09/08 13:17:40;;;;;;;;;;;;;;;;;;5009800;28;20705;-84
2021/09/08 13:20:09;;;;;;;7.75;2.05;;;;;;;;;;5002334;28;19921;-86
2021/09/08 13:22:38;;;;;;;7.90;1.75;;;;;;;;;;5003611;28;20464;-86
2021/09/08 13:25:09;;;;;;;10.13;2.22;;;;;;;;;;5000477;28;20382;-85
2021/09/08 13:27:37;;;;;;;6.95;1.80;;;;;;;;;;5006689;28;20066;-86
2021/09/08 13:30:04;;;;;;;9.68;2.20;;;;;;;;;;5000540;28;20497;-85
2021/09/08 13:32:30;;;;;;;7.60;1.90;;;;;;;;;;4988919;28;20150;-84
2021/09/08 13:35:03;;;;;;;8.00;1.92;;;;;;;;;;5003466;28;20021;-83
2021/09/08 13:37:30;;;;;;;8.30;1.88;;;;;;;;;;5012517;28;20025;-92
2021/09/08 13:39:57;;;;;;;11.10;1.90;;;;;;;;;;5003319;28;20029;-81
2021/09/08 13:42:24;;;;;;;10.10;2.00;;;;;;;;;;5003628;28;20021;-83
2021/09/08 13:44:52;;;;;;;10.30;2.25;;;;;;;;;;5006479;28;20027;-84
2021/09/08 13:47:19;;;;;;;9.63;2.10;;;;;;;;;;5010081;28;20095;-84
2021/09/08 13:49:45;;;;;;;7.60;1.90;;;;;;;;;;4999191;28;20670;-85
2021/09/08 13:52:16;;;;;;;9.10;2.13;;;;;;;;;;5006701;28;20034;-84
2021/09/08 13:54:48;;;;;;;9.40;1.98;;;;;;;;;;5000844;28;20130;-86
2021/09/08 13:57:14;;;;;;;9.27;2.17;;;;;;;;;;5021037;28;20028;-86
2021/09/08 14:00:10;;;;;;;10.10;2.20;;;;;;;;;;5003949;28;20136;-87
2021/09/08 14:02:37;;;;;;;9.52;2.20;;;;;;;;;;5000217;28;20034;-86
2021/09/08 14:17:43;;;;;;;9.10;2.20;;;;;;;;;;5016279;28;20494;-89
2021/09/08 14:23:34;;;;;;;;;;;;;;;;;;;;;
2021/09/08 14:26:07;;;;;;;7.38;1.90;;;;;;;;;;4975916;28;21537;-88
2021/09/08 14:28:34;;;;;;;7.68;1.70;;;;;;;;;;4970554;28;20041;-84
2021/09/08 14:31:03;;;;;;;8.38;2.10;;;;;;;;;;4985704;28;21095;-84
2021/09/08 14:33:30;;;;;;;9.43;2.10;;;;;;;;;;4972691;28;20037;-84
2021/09/08 14:35:56;;;;;;;9.30;2.03;;;;;;;;;;4972939;28;20030;-83
2021/09/08 14:38:23;;;;;;;11.00;2.22;;;;;;;;;;4966844;28;20653;-84
2021/09/08 14:40:51;;;;;;;19.45;2.50;;;;;;;;;;4976019;28;20057;-85
2021/09/08 14:43:19;;;;;;;11.00;2.10;;;;;;;;;;4978830;28;20021;-86
2021/09/08 14:45:46;;;;;;;11.07;2.20;;;;;;;;;;4964881;28;20038;-84
2021/09/08 14:48:14;;;;;;;6.70;1.85;;;;;;;;;;4986223;28;20934;-85
2021/09/08 14:50:51;;;;;;;9.13;2.40;;;;;;;;;;4989452;28;20041;-85
2021/09/08 14:53:19;;;;;;;8.13;2.00;;;;;;;;;;4980805;28;20022;-84
2021/09/08 14:55:49;;;;;;;10.65;2.33;;;;;;;;;;5002039;28;20024;-85
2021/09/08 14:58:19;;;;;;;8.02;2.10;;;;;;;;;;5006289;28;20110;-88
2021/09/08 15:00:49;;;;;;;8.98;2.10;;;;;;;;;;4996660;28;20692;-89
2021/09/08 15:03:16;;;;;;;12.85;2.40;;;;;;;;;;4998973;28;20125;-89
2021/09/08 15:05:47;;;;;;;7.15;1.83;;;;;;;;;;4983952;28;20052;-90
2021/09/08 15:08:16;;;;;;;7.97;2.13;;;;;;;;;;4993801;28;20224;-85
2021/09/08 15:10:44;;;;;;;7.43;2.10;;;;;;;;;;4968185;28;20523;-85
2021/09/08 15:13:12;;;;;;;8.52;2.30;;;;;;;;;;4989165;28;20057;-85
2021/09/08 15:15:38;;;;;;;7.65;2.22;;;;;;;;;;5013709;28;20032;-83
2021/09/08 15:18:07;;;;;;;7.10;2.10;;;;;;;;;;5045802;28;21807;-83
2021/09/08 15:20:33;;;;;;;8.00;2.30;;;;;;;;;;5033689;28;20017;-85